Flight Track Log - Related Links

Times and Time Zones

All times are in EDT time to prevent confusion due to time zone crossing. See the AIP1598 flight status page for this flight to view local times or setup timezone preferences in your user account.

Time Position Orientation Groundspeed Altitude Reporting Facility
EDT Latitude Longitude Course Direction KTS MPH feet Rate Location/Type
Fri 07:58:16 PM 46.9503 -114.1625 107° East 145 167 9,500  Level Salt Lake Center
Fri 07:59:18 PM 46.9447 -114.1756 238° Southwest 145 167 11,700 2,806 Climbing Salt Lake Center
Fri 08:00:20 PM 46.9228 -114.0356 103° East 164 189 15,300 2,780 Climbing Salt Lake Center
Fri 08:01:21 PM 46.9075 -113.9681 108° East 175 201 17,400 1,951 Climbing Salt Lake Center
Fri 08:02:23 PM 46.8919 -113.8967 108° East 179 206 19,300 1,742 Climbing Salt Lake Center
Fri 08:03:00 PM 46.8340 -113.6185 107° East  Level Estimated
Fri 08:03:25 PM 46.8761 -113.8325 110° East 179 206 21,000  Level Salt Lake Center
Fri 08:04:27 PM 46.8583 -113.7422 106° East 239 275 21,000  Level Salt Lake Center
Fri 08:05:29 PM 46.8383 -113.6394 106° East 262 302 21,000  Level Salt Lake Center
Fri 08:06:31 PM 46.8131 -113.5075 106° East 279 321 21,000  Level Salt Lake Center
Fri 08:07:33 PM 46.7950 -113.3942 103° East 285 328 21,000  Level Salt Lake Center
Fri 08:08:35 PM 46.7781 -113.2831 103° East 284 327 21,000  Level Salt Lake Center
Fri 08:09:37 PM 46.7594 -113.1719 104° East 284 327 21,000 -49 Level Salt Lake Center
Fri 08:10:38 PM 46.7433 -113.0614 102° East 282 325 20,900  Descending Salt Lake Center
Fri 08:11:40 PM 46.7272 -112.9506 102° East 281 323 21,000 48 Climbing Salt Lake Center
Fri 08:12:42 PM 46.7022 -112.8211 106° East 282 325 21,000  Level Salt Lake Center
Fri 08:13:44 PM 46.6806 -112.7122 106° East 281 323 21,000  Level Salt Lake Center
Fri 08:14:46 PM 46.6597 -112.6019 105° East 282 325 21,000  Level Salt Lake Center
Fri 08:15:48 PM 46.6436 -112.4892 102° East 283 326 21,000 -48 Level Salt Lake Center
Fri 08:16:50 PM 46.6250 -112.3806 104° East 282 325 20,900  Descending Salt Lake Center
Fri 08:17:52 PM 46.5947 -112.2539 109° East 280 322 21,000 48 Climbing Salt Lake Center
Fri 08:18:54 PM 46.5742 -112.1442 105° East 280 322 21,000 48 Level Salt Lake Center
Fri 08:19:56 PM 46.5514 -112.0372 107° East 281 323 21,100 48 Climbing Salt Lake Center
Fri 08:20:58 PM 46.5231 -111.9344 112° Southeast 277 319 21,100 -49 Level Salt Lake Center
Fri 08:21:59 PM 46.4997 -111.8269 107° East 278 320 21,000 -49 Descending Salt Lake Center
Fri 08:23:01 PM 46.4772 -111.7169 107° East 281 323 21,000 48 Level Salt Lake Center
Fri 08:24:03 PM 46.4506 -111.5867 107° East 282 325 21,100 -48 Climbing Salt Lake Center
Fri 08:25:05 PM 46.4264 -111.4819 108° East 279 321 20,900 -48 Descending Salt Lake Center
Fri 08:26:07 PM 46.4031 -111.3622 106° East 279 321 21,000 97 Climbing Salt Lake Center
Fri 08:27:09 PM 46.3836 -111.2539 105° East 278 320 21,100  Climbing Salt Lake Center
Fri 08:28:11 PM 46.3581 -111.1492 109° East 275 316 21,000 -48 Descending Salt Lake Center
Fri 08:29:13 PM 46.3297 -111.0444 111° Southeast 274 315 21,000  Level Salt Lake Center
Fri 08:30:15 PM 46.3100 -110.9456 106° East 274 315 21,000  Level Salt Lake Center
Fri 08:31:17 PM 46.2842 -110.8417 110° East 274 315 21,000 48 Level Salt Lake Center
Fri 08:32:19 PM 46.2572 -110.7358 110° East 278 320 21,100 -48 Climbing Salt Lake Center
Fri 08:33:21 PM 46.2275 -110.6039 108° East 283 326 20,900 -97 Descending Salt Lake Center
Fri 08:34:23 PM 46.2075 -110.4914 104° East 285 328 20,900 -49 Level Salt Lake Center
Fri 08:35:24 PM 46.1869 -110.3792 105° East 288 331 20,800 -146 Descending Salt Lake Center
Fri 08:36:26 PM 46.1600 -110.2708 110° East 287 330 20,600 -339 Descending Salt Lake Center
Fri 08:37:28 PM 46.1364 -110.1589 107° East 288 331 20,100 -823 Descending Salt Lake Center
Fri 08:38:30 PM 46.1111 -110.0386 107° East 305 351 18,900 -1,258 Descending Salt Lake Center
Fri 08:39:32 PM 46.0767 -109.8950 109° East 314 361 17,500 -1,161 Descending Salt Lake Center
Fri 08:40:34 PM 46.0461 -109.7803 111° Southeast 313 360 16,500 -823 Descending Salt Lake Center
Fri 08:41:36 PM 46.0181 -109.6592 108° East 301 346 15,800 -1,016 Descending Salt Lake Center
Fri 08:42:38 PM 45.9903 -109.5469 110° East 301 346 14,400 -1,161 Descending Salt Lake Center
Fri 08:43:40 PM 45.9622 -109.4211 108° East 305 351 13,400 -976 Descending Salt Lake Center
Fri 08:44:41 PM 45.9397 -109.3067 106° East 302 348 12,400 -1,220 Descending Salt Lake Center
Fri 08:45:43 PM 45.9181 -109.1825 104° East 302 348 10,900 -1,355 Descending Salt Lake Center
Fri 08:46:45 PM 45.9033 -109.0650 100° East 302 348 9,600 -1,161 Descending Salt Lake Center
Fri 08:47:47 PM 45.8961 -108.9478 95° East 300 345 8,500 -1,122 Descending Salt Lake Center
Fri 08:48:48 PM 45.8908 -108.8292 94° East 284 327 7,300 -1,220 Descending Salt Lake Center
Fri 08:49:50 PM 45.8628 -108.7322 113° Southeast 270 311 6,000 -1,065 Descending Salt Lake Center
Fri 08:50:52 PM 45.8361 -108.6400 113° Southeast 234 269 5,100 -1,016 Descending Salt Lake Center
Fri 08:51:54 PM 45.8192 -108.5769 111° Southeast 177 204 3,900 -780 Descending Salt Lake Center
Fri 08:52:55 PM 45.8075 -108.5311 110° East 145 167 3,500 -393 Descending Salt Lake Center
Fri 08:54:00 PM 45.8000 -108.5333 270° West  Level FlightAware Approximate

Login

Don't have an account? Register now (free) for customized features, flight alerts, and more!